Time;durP1;ratioP1;P1;durP2;ratioP2;P2;SDS_P1;SDS_P2;PMS_P1;PMS_P2;Temp;Humidity;BMP_temperature;BMP_pressure;BME280_temperature;BME280_humidity;BME280_pressure;Samples;Min_cycle;Max_cycle;Signal;HPM_P1;HPM_P2
2021/12/15 00:01:37;;;;;;;;;;;16.20;99.90;;;;;;5001919;28;1082;-54
2021/12/15 00:04:04;;;;;;;;;;;16.10;99.90;;;;;;5016415;28;841;-54
2021/12/15 00:06:30;;;;;;;;;;;16.10;99.90;;;;;;5015437;28;1977;-53
2021/12/15 00:08:57;;;;;;;;;;;16.10;99.90;;;;;;5011785;28;877;-53
2021/12/15 00:11:26;;;;;;;;;;;16.10;99.90;;;;;;4999142;28;841;-54
2021/12/15 00:13:54;;;;;;;;;;;16.10;99.90;;;;;;5015369;28;885;-54
2021/12/15 00:16:20;;;;;;;;;;;16.00;99.90;;;;;;5016340;28;900;-53
2021/12/15 00:18:46;;;;;;;;;;;16.00;99.90;;;;;;5016258;28;840;-53
2021/12/15 00:21:14;;;;;;;;;;;16.00;99.90;;;;;;5014385;28;856;-53
2021/12/15 00:23:41;;;;;;;;;;;16.00;99.90;;;;;;5016322;28;896;-53
2021/12/15 00:26:09;;;;;;;;;;;16.00;99.90;;;;;;5015869;28;1910;-53
2021/12/15 00:28:36;;;;;;;;;;;15.90;99.90;;;;;;5015897;28;813;-54
2021/12/15 00:31:05;;;;;;;;;;;15.90;99.90;;;;;;5016207;28;777;-53
2021/12/15 00:33:32;;;;;;;;;;;15.90;99.90;;;;;;5016324;28;880;-53
2021/12/15 00:35:58;;;;;;;;;;;15.90;99.90;;;;;;5017543;28;860;-53
2021/12/15 00:38:24;;;;;;;;;;;15.90;99.90;;;;;;5020228;28;802;-54
2021/12/15 00:40:50;;;;;;;;;;;15.80;99.90;;;;;;5020038;28;904;-54
2021/12/15 00:43:17;;;;;;;;;;;15.80;99.90;;;;;;5019988;28;801;-53
2021/12/15 00:45:43;;;;;;;;;;;15.80;99.90;;;;;;5019931;28;845;-54
2021/12/15 00:48:09;;;;;;;;;;;15.80;99.90;;;;;;5019840;28;1950;-54
2021/12/15 00:50:38;;;;;;;;;;;15.70;99.90;;;;;;5020087;28;876;-54
2021/12/15 00:53:05;;;;;;;;;;;15.70;99.90;;;;;;5015503;28;867;-54
2021/12/15 00:55:34;;;;;;;;;;;15.70;99.90;;;;;;5019696;28;949;-54
2021/12/15 00:58:00;;;;;;;;;;;15.70;99.90;;;;;;5018886;28;877;-54
2021/12/15 01:00:30;;;;;;;;;;;15.70;99.90;;;;;;5020230;28;1163;-54
2021/12/15 01:02:57;;;;;;;;;;;15.70;99.90;;;;;;5001867;28;943;-53
2021/12/15 01:05:25;;;;;;;;;;;15.60;99.90;;;;;;5019783;28;1018;-54
2021/12/15 01:07:52;;;;;;;;;;;15.60;99.90;;;;;;5019451;28;1967;-53
2021/12/15 01:10:24;;;;;;;;;;;15.60;99.90;;;;;;5018724;28;1382;-54
2021/12/15 01:21:12;;;;;;;;;;;15.50;99.90;;;;;;5019344;28;916;-53
2021/12/15 01:23:39;;;;;;;;;;;15.50;99.90;;;;;;5019209;28;837;-53
2021/12/15 01:26:11;;;;;;;;;;;15.50;99.90;;;;;;5018481;28;944;-53
2021/12/15 01:28:38;;;;;;;;;;;15.50;99.90;;;;;;5019347;28;1946;-53
2021/12/15 01:31:06;;;;;;;;;;;15.50;99.90;;;;;;5001515;28;1015;-54
2021/12/15 01:33:34;;;;;;;;;;;15.50;99.90;;;;;;5019294;28;877;-54
2021/12/15 01:36:03;;;;;;;;;;;15.50;99.90;;;;;;5018994;28;916;-52
2021/12/15 01:38:30;;;;;;;;;;;15.40;99.90;;;;;;5010118;28;1410;-52
2021/12/15 01:40:57;;;;;;;;;;;15.50;99.90;;;;;;5030955;28;1025;-53
2021/12/15 01:43:34;;;;;;;;;;;15.50;99.90;;;;;;5018917;28;935;-53
2021/12/15 01:49:01;;;;;;;;;;;15.40;99.90;;;;;;5013672;28;1309;-53
2021/12/15 01:51:27;;;;;;;;;;;15.40;99.90;;;;;;5031345;28;865;-54
2021/12/15 01:53:53;;;;;;;;;;;15.40;99.90;;;;;;5018630;28;813;-53
2021/12/15 01:56:20;;;;;;;;;;;15.40;99.90;;;;;;5018470;28;889;-53
2021/12/15 01:58:46;;;;;;;;;;;15.40;99.90;;;;;;5018515;28;793;-53
2021/12/15 02:01:13;;;;;;;;;;;15.40;99.90;;;;;;5018495;28;888;-53
2021/12/15 02:03:41;;;;;;;;;;;15.30;99.90;;;;;;5018998;28;951;-53
2021/12/15 02:06:09;;;;;;;;;;;15.30;99.90;;;;;;5017883;28;1037;-53
2021/12/15 02:08:37;;;;;;;;;;;15.30;99.90;;;;;;4996203;28;1898;-53
2021/12/15 02:11:04;;;;;;;;;;;15.30;99.90;;;;;;5017283;28;893;-54
2021/12/15 02:13:31;;;;;;;;;;;15.30;99.90;;;;;;5018623;28;821;-54
2021/12/15 02:15:58;;;;;;;;;;;15.20;99.90;;;;;;5018962;28;940;-53
2021/12/15 02:18:32;;;;;;;;;;;15.20;99.90;;;;;;5012342;28;1798;-53
2021/12/15 02:21:04;;;;;;;;;;;15.20;99.90;;;;;;5007050;28;1816;-53
2021/12/15 02:23:36;;;;;;;;;;;15.20;99.90;;;;;;5003480;28;842;-52
2021/12/15 02:26:08;;;;;;;;;;;15.20;99.90;;;;;;5018298;28;870;-52
2021/12/15 02:28:40;;;;;;;;;;;15.20;99.90;;;;;;5017350;28;1907;-53
2021/12/15 02:39:20;;;;;;;;;;;15.10;99.90;;;;;;5017733;28;952;-52
2021/12/15 02:41:46;;;;;;;;;;;15.10;99.90;;;;;;5017996;28;791;-52
2021/12/15 02:44:15;;;;;;;;;;;15.10;99.90;;;;;;5018049;28;844;-56
2021/12/15 02:46:45;;;;;;;;;;;15.10;99.90;;;;;;5017717;28;1906;-52
2021/12/15 02:49:14;;;;;;;;;;;15.10;99.90;;;;;;5017466;28;1545;-52
2021/12/15 02:51:41;;;;;;;;;;;15.10;99.90;;;;;;5013493;28;870;-52
2021/12/15 02:54:12;;;;;;;;;;;15.10;99.90;;;;;;5016722;28;830;-52
2021/12/15 02:56:39;;;;;;;;;;;15.00;99.90;;;;;;5018000;28;856;-52
2021/12/15 02:59:07;;;;;;;;;;;15.00;99.90;;;;;;5003659;28;877;-52
2021/12/15 03:01:51;;;;;;;;;;;15.00;99.90;;;;;;4996790;28;949;-52
2021/12/15 03:07:10;;;;;;;;;;;14.90;99.90;;;;;;4996860;28;1906;-52
2021/12/15 03:17:55;;;;;;;;;;;14.90;99.90;;;;;;4996863;28;839;-53
2021/12/15 03:20:21;;;;;;;;;;;14.90;99.90;;;;;;4996723;28;928;-53
2021/12/15 03:22:49;;;;;;;;;;;14.80;99.90;;;;;;4996387;28;877;-54
2021/12/15 03:25:15;;;;;;;;;;;14.80;99.90;;;;;;4996670;28;1069;-54
2021/12/15 03:36:03;;;;;;;;;;;14.80;99.90;;;;;;5009479;28;932;-54
2021/12/15 03:38:29;;;;;;;;;;;14.80;99.90;;;;;;5017329;28;818;-53
2021/12/15 03:40:56;;;;;;;;;;;14.80;99.90;;;;;;5017014;28;810;-53
2021/12/15 03:43:22;;;;;;;;;;;14.70;99.90;;;;;;5016825;28;858;-52
2021/12/15 03:45:51;;;;;;;;;;;14.80;99.90;;;;;;5016570;28;897;-52
2021/12/15 03:48:19;;;;;;;;;;;14.70;99.90;;;;;;5016414;28;1910;-52
2021/12/15 03:50:46;;;;;;;;;;;14.70;99.90;;;;;;5015697;28;975;-52
2021/12/15 03:53:13;;;;;;;;;;;14.70;99.90;;;;;;5012677;28;935;-52
2021/12/15 03:55:40;;;;;;;;;;;14.70;99.90;;;;;;5010408;28;1163;-52
2021/12/15 03:58:10;;;;;;;;;;;14.70;99.90;;;;;;5016279;28;1539;-52
2021/12/15 04:00:37;;;;;;;;;;;14.70;99.90;;;;;;5016636;28;918;-52
2021/12/15 04:03:03;;;;;;;;;;;14.70;99.90;;;;;;5016366;28;829;-52
2021/12/15 04:05:30;;;;;;;;;;;14.60;99.90;;;;;;5016592;28;881;-52
2021/12/15 04:07:57;;;;;;;;;;;14.60;99.90;;;;;;5016411;28;1973;-52
2021/12/15 04:10:25;;;;;;;;;;;14.60;99.90;;;;;;5015773;28;844;-52
2021/12/15 04:12:52;;;;;;;;;;;14.60;99.90;;;;;;5016154;28;1099;-52
2021/12/15 04:15:29;;;;;;;;;;;14.60;99.90;;;;;;5016189;28;793;-52
2021/12/15 04:17:56;;;;;;;;;;;14.60;99.90;;;;;;5016261;28;865;-52
2021/12/15 04:20:23;;;;;;;;;;;14.60;99.90;;;;;;5016239;28;833;-52
2021/12/15 04:22:51;;;;;;;;;;;14.60;99.90;;;;;;5012716;28;853;-52
2021/12/15 04:25:23;;;;;;;;;;;14.60;99.90;;;;;;5016299;28;876;-52
2021/12/15 04:28:07;;;;;;;;;;;14.60;99.90;;;;;;5016006;28;1906;-52
2021/12/15 04:30:36;;;;;;;;;;;14.60;99.90;;;;;;5016326;28;828;-52
2021/12/15 04:33:10;;;;;;;;;;;14.60;99.90;;;;;;5016096;28;1039;-52
2021/12/15 04:35:37;;;;;;;;;;;14.50;99.90;;;;;;5016539;28;869;-52
2021/12/15 04:38:03;;;;;;;;;;;14.50;99.90;;;;;;5014980;28;853;-52
2021/12/15 04:40:29;;;;;;;;;;;14.50;99.90;;;;;;5015869;28;1025;-52
2021/12/15 04:42:55;;;;;;;;;;;14.50;99.90;;;;;;5015912;28;847;-52
2021/12/15 04:45:23;;;;;;;;;;;14.50;99.90;;;;;;5015953;28;857;-52
2021/12/15 04:47:51;;;;;;;;;;;14.50;99.90;;;;;;5015755;28;1910;-52
2021/12/15 04:50:21;;;;;;;;;;;14.50;99.90;;;;;;5016027;28;824;-52
2021/12/15 04:52:49;;;;;;;;;;;14.50;99.90;;;;;;5009816;28;874;-52
2021/12/15 04:55:16;;;;;;;;;;;14.50;99.90;;;;;;5030824;28;1014;-52
2021/12/15 04:57:42;;;;;;;;;;;14.50;99.90;;;;;;5016112;28;798;-52
2021/12/15 05:00:11;;;;;;;;;;;14.50;99.90;;;;;;5015634;28;864;-52
2021/12/15 05:02:37;;;;;;;;;;;14.50;99.90;;;;;;5030891;28;905;-52
2021/12/15 05:05:04;;;;;;;;;;;14.50;99.90;;;;;;5016088;28;1015;-52
2021/12/15 05:07:30;;;;;;;;;;;14.50;99.90;;;;;;5016028;28;1981;-52
2021/12/15 05:09:56;;;;;;;;;;;14.50;99.90;;;;;;5015949;28;816;-52
2021/12/15 05:12:23;;;;;;;;;;;14.40;99.90;;;;;;5015925;28;897;-52
2021/12/15 05:14:51;;;;;;;;;;;14.40;99.90;;;;;;5015815;28;953;-52
2021/12/15 05:17:18;;;;;;;;;;;14.50;99.90;;;;;;5015133;28;1080;-52
2021/12/15 05:19:46;;;;;;;;;;;14.40;99.90;;;;;;5015902;28;945;-52
2021/12/15 05:22:14;;;;;;;;;;;14.40;99.90;;;;;;5009821;28;923;-52
2021/12/15 05:24:42;;;;;;;;;;;14.40;99.90;;;;;;5034259;28;927;-52
2021/12/15 05:27:10;;;;;;;;;;;14.40;99.90;;;;;;5019418;28;1914;-52
2021/12/15 05:29:36;;;;;;;;;;;14.40;99.90;;;;;;5019043;28;1007;-52
2021/12/15 05:32:03;;;;;;;;;;;14.40;99.90;;;;;;5019074;28;813;-52
2021/12/15 05:34:29;;;;;;;;;;;14.40;99.90;;;;;;5018574;28;918;-52
2021/12/15 05:36:56;;;;;;;;;;;14.40;99.90;;;;;;5019178;28;1024;-51
2021/12/15 05:39:24;;;;;;;;;;;14.40;99.90;;;;;;5019062;28;844;-52
2021/12/15 05:41:53;;;;;;;;;;;14.40;99.90;;;;;;5018918;28;868;-52
2021/12/15 05:44:21;;;;;;;;;;;14.40;99.90;;;;;;5033834;28;1038;-52
2021/12/15 05:46:48;;;;;;;;;;;14.40;99.90;;;;;;5017927;28;922;-52
2021/12/15 05:49:14;;;;;;;;;;;14.40;99.90;;;;;;5012751;28;2063;-52
2021/12/15 05:51:40;;;;;;;;;;;14.40;99.90;;;;;;5014731;28;869;-52
2021/12/15 05:54:06;;;;;;;;;;;14.40;99.90;;;;;;5018882;28;1016;-52
2021/12/15 05:56:32;;;;;;;;;;;14.40;99.90;;;;;;5018863;28;1137;-52
2021/12/15 05:58:58;;;;;;;;;;;14.40;99.90;;;;;;5018478;28;841;-52
2021/12/15 06:01:27;;;;;;;;;;;14.40;99.90;;;;;;5018602;28;904;-52
2021/12/15 06:03:54;;;;;;;;;;;14.40;99.90;;;;;;5018560;28;865;-52
2021/12/15 06:06:22;;;;;;;;;;;14.50;99.90;;;;;;5017776;28;880;-52
2021/12/15 06:08:49;;;;;;;;;;;14.50;99.90;;;;;;5036358;28;1913;-52
2021/12/15 06:11:15;;;;;;;;;;;14.50;99.90;;;;;;5036510;28;876;-52
2021/12/15 06:13:42;;;;;;;;;;;14.50;99.90;;;;;;5036378;28;827;-54
2021/12/15 06:16:10;;;;;;;;;;;14.60;99.90;;;;;;5035568;28;1115;-52
2021/12/15 06:18:36;;;;;;;;;;;14.60;99.90;;;;;;5035659;28;944;-54
2021/12/15 06:21:02;;;;;;;;;;;14.70;99.90;;;;;;5033696;28;951;-53
2021/12/15 06:23:28;;;;;;;;;;;14.80;99.90;;;;;;5033162;28;946;-52
2021/12/15 06:25:57;;;;;;;;;;;14.90;99.90;;;;;;5035548;28;1090;-53
2021/12/15 06:28:28;;;;;;;;;;;15.00;99.90;;;;;;5035368;28;1965;-54
2021/12/15 06:30:55;;;;;;;;;;;15.10;99.90;;;;;;5036243;28;873;-52
2021/12/15 06:33:24;;;;;;;;;;;15.20;99.90;;;;;;5034702;28;988;-53
2021/12/15 06:35:58;;;;;;;;;;;15.30;99.90;;;;;;5036144;28;932;-52
2021/12/15 06:38:33;;;;;;;;;;;15.40;99.90;;;;;;5034875;28;885;-53
2021/12/15 06:41:00;;;;;;;;;;;15.60;99.90;;;;;;5017884;28;1073;-52
2021/12/15 06:43:27;;;;;;;;;;;15.70;99.90;;;;;;5018042;28;1674;-52
2021/12/15 06:46:29;;;;;;;;;;;15.70;99.90;;;;;;5017170;28;1260;-52
2021/12/15 06:57:32;;;;;;;;;;;15.80;99.90;;;;;;5012575;28;849;-52
2021/12/15 07:00:01;;;;;;;;;;;15.90;99.90;;;;;;5017525;28;1013;-52
2021/12/15 07:02:29;;;;;;;;;;;15.90;99.90;;;;;;5017614;28;893;-52
2021/12/15 07:04:57;;;;;;;;;;;15.80;99.90;;;;;;5017873;28;974;-52
2021/12/15 07:07:25;;;;;;;;;;;15.80;99.90;;;;;;5016390;28;1993;-52
2021/12/15 07:09:53;;;;;;;;;;;15.80;99.90;;;;;;5017338;28;896;-54
2021/12/15 07:12:19;;;;;;;;;;;15.80;99.90;;;;;;5017228;28;827;-54
2021/12/15 07:14:45;;;;;;;;;;;15.80;99.90;;;;;;5017527;28;919;-54
2021/12/15 07:17:19;;;;;;;;;;;15.70;99.90;;;;;;5017072;28;962;-53
2021/12/15 07:25:08;;;;;;;;;;;15.60;99.90;;;;;;5016921;28;999;-53
2021/12/15 07:27:34;;;;;;;;;;;15.60;99.90;;;;;;5017161;28;1902;-54
2021/12/15 07:30:00;;;;;;;;;;;15.60;99.90;;;;;;5016848;28;904;-53
2021/12/15 07:32:26;;;;;;;;;;;15.50;99.90;;;;;;5007325;28;1087;-54
2021/12/15 07:34:54;;;;;;;;;;;15.50;99.90;;;;;;5014440;28;770;-53
2021/12/15 07:37:21;;;;;;;;;;;15.50;99.90;;;;;;5015254;28;921;-55
2021/12/15 07:39:56;;;;;;;;;;;15.40;99.90;;;;;;5016846;28;827;-54
2021/12/15 07:42:32;;;;;;;;;;;15.40;99.90;;;;;;5031731;28;1069;-54
2021/12/15 07:45:00;;;;;;;;;;;15.40;99.90;;;;;;5016486;28;905;-54
2021/12/15 07:47:27;;;;;;;;;;;15.40;99.90;;;;;;5008747;28;1895;-54
2021/12/15 07:49:57;;;;;;;;;;;15.30;99.90;;;;;;5016538;28;1216;-54
2021/12/15 07:52:24;;;;;;;;;;;15.30;99.90;;;;;;5010870;28;865;-53
2021/12/15 07:54:50;;;;;;;;;;;15.30;99.90;;;;;;5016784;28;901;-52
2021/12/15 07:57:18;;;;;;;;;;;15.30;99.90;;;;;;5016852;28;834;-54
2021/12/15 07:59:44;;;;;;;;;;;15.20;99.90;;;;;;5016242;28;790;-54
2021/12/15 08:02:11;;;;;;;;;;;15.20;99.90;;;;;;5016411;28;769;-54
2021/12/15 08:04:37;;;;;;;;;;;15.20;99.90;;;;;;5013582;28;1724;-54
2021/12/15 08:07:04;;;;;;;;;;;15.20;99.90;;;;;;5000585;28;1006;-54
2021/12/15 08:09:31;;;;;;;;;;;15.20;99.90;;;;;;5016195;28;1977;-53
2021/12/15 08:11:58;;;;;;;;;;;15.10;99.90;;;;;;5016257;28;927;-52
2021/12/15 08:14:25;;;;;;;;;;;15.10;99.90;;;;;;5016005;28;802;-55
2021/12/15 08:16:51;;;;;;;;;;;15.10;99.90;;;;;;5031313;28;939;-55
2021/12/15 08:19:19;;;;;;;;;;;15.10;99.90;;;;;;5016199;28;827;-55
2021/12/15 08:21:46;;;;;;;;;;;15.10;99.90;;;;;;5008557;28;851;-55
2021/12/15 08:24:12;;;;;;;;;;;15.10;99.90;;;;;;5016153;28;892;-52
2021/12/15 08:26:39;;;;;;;;;;;15.00;99.90;;;;;;5004844;28;947;-52
2021/12/15 08:29:05;;;;;;;;;;;15.00;99.90;;;;;;5015838;28;1902;-52
2021/12/15 08:31:32;;;;;;;;;;;15.00;99.90;;;;;;5007438;28;1007;-54
2021/12/15 08:33:59;;;;;;;;;;;15.00;99.90;;;;;;4996069;28;1728;-52
2021/12/15 08:36:27;;;;;;;;;;;15.00;99.90;;;;;;4995034;28;1111;-52
2021/12/15 08:38:53;;;;;;;;;;;15.00;99.90;;;;;;4999740;28;1080;-54
2021/12/15 08:41:21;;;;;;;;;;;15.00;99.90;;;;;;5000035;28;1033;-54
2021/12/15 08:43:48;;;;;;;;;;;15.00;99.90;;;;;;4998323;28;1219;-54
2021/12/15 08:46:17;;;;;;;;;;;15.10;99.90;;;;;;4999366;28;1103;-52
2021/12/15 08:48:43;;;;;;;;;;;15.10;99.90;;;;;;4997295;28;1906;-53
2021/12/15 08:51:11;;;;;;;;;;;15.10;99.90;;;;;;5001138;28;1243;-54
2021/12/15 08:53:38;;;;;;;;;;;15.10;99.90;;;;;;5002777;28;1076;-54
2021/12/15 08:56:05;;;;;;;;;;;15.10;99.90;;;;;;5010350;28;1699;-54
2021/12/15 08:58:32;;;;;;;;;;;15.10;99.90;;;;;;5011855;28;1460;-54
2021/12/15 09:01:00;;;;;;;;;;;15.20;99.90;;;;;;5017686;28;1393;-54
2021/12/15 09:03:27;;;;;;;;;;;15.30;99.90;;;;;;5019783;28;903;-52
2021/12/15 09:05:54;;;;;;;;;;;15.20;99.90;;;;;;5013210;28;1627;-54
2021/12/15 09:08:23;;;;;;;;;;;15.20;99.90;;;;;;5007914;28;1910;-54
2021/12/15 09:10:50;;;;;;;;;;;15.20;99.90;;;;;;5006625;28;1345;-52
2021/12/15 09:13:16;;;;;;;;;;;15.20;99.90;;;;;;5017584;28;1686;-53
2021/12/15 09:15:43;;;;;;;;;;;15.20;99.90;;;;;;5015649;28;1044;-52
2021/12/15 09:18:10;;;;;;;;;;;15.20;99.90;;;;;;5018319;28;1178;-54
2021/12/15 09:20:40;;;;;;;;;;;15.20;99.90;;;;;;5015573;28;970;-54
2021/12/15 09:23:09;;;;;;;;;;;15.20;99.90;;;;;;5012515;28;881;-54
2021/12/15 09:25:37;;;;;;;;;;;15.30;99.90;;;;;;5012374;28;1086;-55
2021/12/15 09:28:04;;;;;;;;;;;15.40;99.90;;;;;;5019369;28;1906;-54
2021/12/15 09:30:31;;;;;;;;;;;15.60;99.90;;;;;;5015398;28;1604;-54
2021/12/15 09:32:59;;;;;;;;;;;15.80;99.90;;;;;;5019018;28;857;-54
2021/12/15 09:35:27;;;;;;;;;;;16.00;99.90;;;;;;5018993;28;968;-55
2021/12/15 09:37:54;;;;;;;;;;;16.10;99.90;;;;;;5019288;28;885;-53
2021/12/15 09:40:20;;;;;;;;;;;16.30;99.90;;;;;;5014921;28;1130;-55
2021/12/15 09:42:47;;;;;;;;;;;16.50;99.90;;;;;;5018797;28;924;-55
2021/12/15 09:45:25;;;;;;;;;;;16.80;99.90;;;;;;5007112;28;1035;-54
2021/12/15 09:56:22;;;;;;;;;;;17.00;99.90;;;;;;5009074;28;1975;-54
2021/12/15 10:04:26;;;;;;;;;;;17.30;99.90;;;;;;5012214;28;1448;-54
2021/12/15 10:17:26;;;;;;;;;;;17.40;99.90;;;;;;5016638;28;1045;-53
2021/12/15 10:18:07;;;;;;;;;;;17.40;99.90;;;;;;5010841;28;1091;-54
2021/12/15 10:20:38;;;;;;;;;;;17.40;99.90;;;;;;5016654;28;1254;-54
2021/12/15 10:23:05;;;;;;;;;;;17.40;99.90;;;;;;5005316;28;1067;-53
2021/12/15 10:25:33;;;;;;;;;;;17.40;99.90;;;;;;5018137;28;927;-54
2021/12/15 10:28:03;;;;;;;;;;;17.40;99.90;;;;;;5018594;28;1957;-53
2021/12/15 10:30:47;;;;;;;;;;;17.40;99.90;;;;;;5017241;28;924;-54
2021/12/15 10:33:20;;;;;;;;;;;17.40;99.90;;;;;;5014522;28;798;-54
2021/12/15 10:35:50;;;;;;;;;;;17.40;99.90;;;;;;5007521;28;1008;-53
2021/12/15 10:38:27;;;;;;;;;;;17.30;99.90;;;;;;5007184;28;1059;-53
2021/12/15 10:40:58;;;;;;;;;;;17.20;99.90;;;;;;5001721;28;1070;-54
2021/12/15 10:43:28;;;;;;;;;;;17.20;99.90;;;;;;4998048;28;1208;-54
2021/12/15 10:45:58;;;;;;;;;;;17.10;99.90;;;;;;5000657;28;1283;-54
2021/12/15 10:48:36;;;;;;;;;;;17.10;99.90;;;;;;5001653;28;1967;-54
2021/12/15 10:51:20;;;;;;;;;;;17.00;99.90;;;;;;5014576;28;923;-54
2021/12/15 10:53:48;;;;;;;;;;;17.00;99.90;;;;;;5017278;28;1050;-54
2021/12/15 10:56:18;;;;;;;;;;;16.90;99.90;;;;;;5017676;28;877;-53
2021/12/15 10:58:50;;;;;;;;;;;16.80;99.90;;;;;;5016433;28;866;-54
2021/12/15 11:01:35;;;;;;;;;;;16.70;99.90;;;;;;5017353;28;821;-53
2021/12/15 11:04:02;;;;;;;;;;;16.70;99.90;;;;;;5017322;28;896;-53
2021/12/15 11:06:33;;;;;;;;;;;16.70;99.90;;;;;;5015350;28;1778;-53
2021/12/15 11:09:11;;;;;;;;;;;16.60;99.90;;;;;;5017265;28;1910;-53
2021/12/15 11:11:37;;;;;;;;;;;16.50;99.90;;;;;;5017286;28;802;-53
2021/12/15 11:14:24;;;;;;;;;;;16.50;99.90;;;;;;5017356;28;882;-53
2021/12/15 11:17:01;;;;;;;;;;;16.50;99.90;;;;;;5017098;28;850;-54
2021/12/15 11:19:39;;;;;;;;;;;16.50;99.90;;;;;;5017143;28;881;-55
2021/12/15 11:22:25;;;;;;;;;;;16.40;99.90;;;;;;5009598;28;877;-54
2021/12/15 11:24:52;;;;;;;;;;;16.40;99.90;;;;;;5017186;28;893;-53
2021/12/15 11:27:21;;;;;;;;;;;16.40;99.90;;;;;;5017277;28;862;-53
2021/12/15 11:29:48;;;;;;;;;;;16.40;99.90;;;;;;4986261;28;1969;-53
2021/12/15 11:32:33;;;;;;;;;;;16.40;99.90;;;;;;4986523;28;1245;-53
2021/12/15 11:35:12;;;;;;;;;;;16.40;99.90;;;;;;5006696;28;1227;-54
2021/12/15 11:37:46;;;;;;;;;;;16.50;99.90;;;;;;5016040;28;971;-52
2021/12/15 11:40:14;;;;;;;;;;;16.50;99.90;;;;;;5016802;28;852;-53
2021/12/15 11:42:42;;;;;;;;;;;16.50;99.90;;;;;;4998900;28;914;-53
2021/12/15 11:45:10;;;;;;;;;;;16.60;99.90;;;;;;5005300;28;1053;-54
2021/12/15 11:47:37;;;;;;;;;;;16.60;99.90;;;;;;5014819;28;802;-54
2021/12/15 11:50:11;;;;;;;;;;;16.70;99.90;;;;;;5016345;28;1973;-54
2021/12/15 11:52:39;;;;;;;;;;;16.80;99.90;;;;;;5012493;28;921;-52
2021/12/15 11:55:07;;;;;;;;;;;16.80;99.90;;;;;;5017312;28;852;-53
2021/12/15 11:57:33;;;;;;;;;;;16.80;99.90;;;;;;5016503;28;865;-52
2021/12/15 12:00:04;;;;;;;;;;;16.90;99.90;;;;;;5013390;28;1113;-52
2021/12/15 12:02:33;;;;;;;;;;;16.90;99.90;;;;;;5008551;28;937;-52
2021/12/15 12:05:24;;;;;;;;;;;16.90;99.90;;;;;;5011369;28;1356;-52
2021/12/15 12:08:08;;;;;;;;;;;16.90;99.90;;;;;;5003831;28;1559;-53
2021/12/15 12:10:45;;;;;;;;;;;16.90;99.90;;;;;;5011885;28;1065;-52
2021/12/15 12:13:24;;;;;;;;;;;16.90;99.90;;;;;;5031167;28;1011;-52
2021/12/15 12:15:57;;;;;;;;;;;16.80;99.90;;;;;;5014593;28;2111;-53
2021/12/15 12:18:26;;;;;;;;;;;16.80;99.90;;;;;;5016603;28;894;-53
2021/12/15 12:20:56;;;;;;;;;;;16.80;99.90;;;;;;5019428;23;1432;-54
2021/12/15 12:23:24;;;;;;;;;;;16.70;99.90;;;;;;4994849;28;798;-54
2021/12/15 12:25:52;;;;;;;;;;;16.70;99.90;;;;;;5004815;28;1050;-54
2021/12/15 12:28:19;;;;;;;;;;;16.70;99.90;;;;;;5015710;28;1957;-54
2021/12/15 12:30:47;;;;;;;;;;;16.60;99.90;;;;;;5015093;28;904;-54
2021/12/15 12:33:14;;;;;;;;;;;16.60;99.90;;;;;;5014765;28;798;-54
2021/12/15 12:35:46;;;;;;;;;;;16.60;99.90;;;;;;5014787;28;889;-55
2021/12/15 12:38:20;;;;;;;;;;;16.60;99.90;;;;;;5014594;28;805;-54
2021/12/15 12:40:51;;;;;;;;;;;16.50;99.90;;;;;;5004493;28;1025;-54
2021/12/15 12:43:19;;;;;;;;;;;16.50;99.90;;;;;;4996789;28;1046;-54
2021/12/15 12:45:52;;;;;;;;;;;16.50;99.90;;;;;;4996819;28;871;-53
2021/12/15 12:48:36;;;;;;;;;;;16.50;99.90;;;;;;4991211;28;1902;-53
2021/12/15 12:59:29;;;;;;;;;;;16.60;99.90;;;;;;5014889;28;810;-53
2021/12/15 13:01:57;;;;;;;;;;;16.80;99.90;;;;;;5015059;28;936;-53
2021/12/15 13:04:34;;;;;;;;;;;16.80;99.90;;;;;;5013222;28;1605;-54
2021/12/15 13:07:00;;;;;;;;;;;16.80;99.90;;;;;;4995718;28;890;-55
2021/12/15 13:09:41;;;;;;;;;;;16.80;99.90;;;;;;5015070;28;1906;-54
2021/12/15 13:12:26;;;;;;;;;;;16.80;99.90;;;;;;4997173;28;957;-56
2021/12/15 13:14:55;;;;;;;;;;;16.80;99.90;;;;;;5009396;28;889;-55
2021/12/15 13:17:25;;;;;;;;;;;16.80;99.90;;;;;;5002312;28;1199;-55
2021/12/15 13:19:53;;;;;;;;;;;17.10;99.90;;;;;;4994589;28;870;-55
2021/12/15 13:30:39;;;;;;;;;;;17.00;99.90;;;;;;4996651;28;1965;-54
2021/12/15 13:33:15;;;;;;;;;;;17.00;99.90;;;;;;4996262;28;946;-53
2021/12/15 13:35:53;;;;;;;;;;;16.90;99.90;;;;;;4993943;28;859;-54
2021/12/15 13:38:29;;;;;;;;;;;16.80;99.90;;;;;;4978794;28;873;-55
2021/12/15 13:40:55;;;;;;;;;;;16.80;99.90;;;;;;4996213;28;834;-55
2021/12/15 13:43:36;;;;;;;;;;;16.70;99.90;;;;;;4998198;28;1081;-55
2021/12/15 13:46:04;;;;;;;;;;;16.70;99.90;;;;;;5001322;28;1019;-55
2021/12/15 13:48:49;;;;;;;;;;;16.70;99.90;;;;;;5006448;28;1898;-54
2021/12/15 13:51:15;;;;;;;;;;;16.70;99.90;;;;;;5006528;28;1057;-54
2021/12/15 13:53:40;;;;;;;;;;;17.00;99.90;;;;;;4999761;28;1229;-55
2021/12/15 13:56:06;;;;;;;;;;;16.90;99.90;;;;;;4982458;28;969;-55
2021/12/15 13:58:33;;;;;;;;;;;16.80;99.90;;;;;;5017791;28;908;-54
2021/12/15 14:01:01;;;;;;;;;;;16.80;99.90;;;;;;5017841;28;847;-54
2021/12/15 14:03:41;;;;;;;;;;;16.80;99.90;;;;;;4996439;28;920;-55
2021/12/15 14:06:13;;;;;;;;;;;16.80;99.90;;;;;;4999675;28;1664;-55
2021/12/15 14:08:47;;;;;;;;;;;16.80;99.90;;;;;;4999904;28;1974;-55
2021/12/15 14:11:18;;;;;;;;;;;16.70;99.90;;;;;;4999892;28;1054;-55
2021/12/15 14:13:49;;;;;;;;;;;16.70;99.90;;;;;;5000158;28;1288;-54
2021/12/15 14:16:28;;;;;;;;;;;16.70;99.90;;;;;;4998866;28;1066;-53
2021/12/15 14:18:54;;;;;;;;;;;16.80;99.90;;;;;;5002345;28;1142;-54
2021/12/15 14:21:20;;;;;;;;;;;16.80;99.90;;;;;;4997956;28;1410;-53
2021/12/15 14:23:48;;;;;;;;;;;16.90;99.90;;;;;;5000594;28;1093;-54
2021/12/15 14:26:15;;;;;;;;;;;16.90;99.90;;;;;;5001762;28;1210;-54
2021/12/15 14:28:44;;;;;;;;;;;17.00;99.90;;;;;;4999385;28;1902;-53
2021/12/15 14:31:30;;;;;;;;;;;17.00;99.90;;;;;;5001980;28;1097;-53
2021/12/15 14:33:58;;;;;;;;;;;17.10;99.90;;;;;;5000683;28;1283;-54
2021/12/15 14:36:28;;;;;;;;;;;17.20;99.90;;;;;;5003752;28;1216;-54
2021/12/15 14:38:56;;;;;;;;;;;17.20;99.90;;;;;;5000937;28;1267;-53
2021/12/15 14:41:28;;;;;;;;;;;17.30;99.90;;;;;;4983535;28;1167;-53
2021/12/15 14:43:55;;;;;;;;;;;17.30;99.90;;;;;;5013280;28;1045;-54
2021/12/15 14:46:24;;;;;;;;;;;17.40;99.90;;;;;;4992711;28;1072;-53
2021/12/15 14:49:01;;;;;;;;;;;17.40;99.90;;;;;;5002955;28;1955;-55
2021/12/15 14:51:30;;;;;;;;;;;17.40;99.90;;;;;;4998790;28;1105;-55
2021/12/15 14:53:59;;;;;;;;;;;17.40;99.90;;;;;;4978560;28;875;-55
2021/12/15 14:56:38;;;;;;;;;;;17.40;99.90;;;;;;5014895;28;1265;-56
2021/12/15 14:59:05;;;;;;;;;;;17.40;99.90;;;;;;5016601;28;828;-55
2021/12/15 15:01:32;;;;;;;;;;;17.30;99.90;;;;;;5016624;28;865;-54
2021/12/15 15:04:03;;;;;;;;;;;17.20;99.90;;;;;;5016316;28;980;-53
2021/12/15 15:06:31;;;;;;;;;;;17.20;99.90;;;;;;4981815;28;1747;-54
2021/12/15 15:09:12;;;;;;;;;;;17.10;99.90;;;;;;4996809;28;1902;-53
2021/12/15 15:11:46;;;;;;;;;;;17.10;99.90;;;;;;4997433;28;1252;-55
2021/12/15 15:14:13;;;;;;;;;;;17.10;99.90;;;;;;4997420;28;1083;-55
2021/12/15 15:16:39;;;;;;;;;;;17.00;99.90;;;;;;4997578;28;1043;-55
2021/12/15 15:19:16;;;;;;;;;;;17.00;99.90;;;;;;4997049;28;1174;-55
2021/12/15 15:21:42;;;;;;;;;;;17.00;99.90;;;;;;5000290;28;1512;-54
2021/12/15 15:24:08;;;;;;;;;;;17.00;99.90;;;;;;5018373;28;1133;-54
2021/12/15 15:26:34;;;;;;;;;;;16.90;99.90;;;;;;5020091;28;1375;-55
2021/12/15 15:29:00;;;;;;;;;;;16.90;99.90;;;;;;5017969;28;1973;-55
2021/12/15 15:31:30;;;;;;;;;;;16.80;99.90;;;;;;5020548;28;1201;-55
2021/12/15 15:33:58;;;;;;;;;;;16.80;99.90;;;;;;5019866;28;1435;-54
2021/12/15 15:36:27;;;;;;;;;;;16.80;99.90;;;;;;5019124;28;1363;-53
2021/12/15 15:38:56;;;;;;;;;;;16.80;99.90;;;;;;5017166;28;1352;-53
2021/12/15 15:41:24;;;;;;;;;;;16.80;99.90;;;;;;5018729;28;1372;-53
2021/12/15 15:43:51;;;;;;;;;;;16.80;99.90;;;;;;5020942;28;1114;-53
2021/12/15 15:46:19;;;;;;;;;;;16.80;99.90;;;;;;5018218;28;1289;-55
2021/12/15 15:48:46;;;;;;;;;;;16.80;99.90;;;;;;5015509;28;1952;-54
2021/12/15 15:51:14;;;;;;;;;;;16.80;99.90;;;;;;5016258;28;1282;-54
2021/12/15 15:53:40;;;;;;;;;;;16.80;99.90;;;;;;5017800;28;1306;-53
2021/12/15 15:56:13;;;;;;;;;;;16.70;99.90;;;;;;5017116;28;1147;-53
2021/12/15 15:58:43;;;;;;;;;;;16.60;99.90;;;;;;5016366;28;1317;-53
2021/12/15 16:01:10;;;;;;;;;;;16.50;99.90;;;;;;5016762;28;1139;-53
2021/12/15 16:03:36;;;;;;;;;;;16.40;99.90;;;;;;5020229;28;1104;-53
2021/12/15 16:06:06;;;;;;;;;;;16.30;99.90;;;;;;5016942;28;1477;-53
2021/12/15 16:08:34;;;;;;;;;;;16.30;99.90;;;;;;5017377;28;1965;-53
2021/12/15 16:11:00;;;;;;;;;;;16.50;99.90;;;;;;5019309;28;1376;-54
2021/12/15 16:13:28;;;;;;;;;;;16.60;99.90;;;;;;5017099;28;1256;-53
2021/12/15 16:16:10;;;;;;;;;;;17.00;99.90;;;;;;5029862;28;1221;-53
2021/12/15 16:18:43;;;;;;;;;;;17.20;99.90;;;;;;5026406;28;1146;-54
2021/12/15 16:21:15;;;;;;;;;;;17.40;99.90;;;;;;5028183;28;1149;-53